map of CDB home
CDB - Airport
Location
City:  Cold Bay, Alaska, United States
ICAO:PACD
IATA:CDB
FAA LID:CDB

Details
Type:Airport (Part 139 Class I)
Use:Public/Civil, International (customs landing rights)
Latitude:5512'21"N (55.205914)
Longitude:16243'35"W (-162.726251)
Datum:WGS 1984
Elevation:100 ft (30 m)
Variation:10.58E (WMM2015 magnetic declination)
-0.23 annual change
Runways:2
Longest:10180 × 150 ft (3103 × 45.5 m), paved

Time
Time Zone:UTC-9 (DST-8)
Local Time:

Weather
METAR:PACD 220901Z AUTO 25016G22KT 10SM OVC014 09/08 A2985 RMK AO2 T00940083 TSNO
TAF:PACD 220531Z 2206/2306 25015KT P6SM VCSH SCT007 OVC015
TEMPO 2206/2210 OVC007

Related Locations
Nearby:
Farthest:FAAF: 11012 mi / 17722 km
Struisbaai [Andrew's Field Airport], WC, ZA

Find:

   beyond  
but within

Other Information
Maps:
NOTAMs:
Links:
Sources:

  
  • flag of United States
  • flag of Alaska
  

Airport Diagram

Airport diagram for CDB

Airport diagram PDF

Sectional Chart

Flight Planning
at skyvector.com

Satellite Image

Google Maps Satellite view

 

Copyright © 2004-2018 Karl L. Swartz. All rights reserved.
The Great Circle Mapper name and logo are trademarks of the Great Circle Mapper.
All other trademarks mentioned herein belong to their respective owners.
Please see credits for attibutions and further copyright information.

  Follow gcmap on Facebook Follow gcmap on Twitter Follow gcmap on Google+ GCmap on LinkedIn

hCard Microformat

Geo Microformat